sensor_id;sensor_type;location;lat;lon;timestamp;P1;durP1;ratioP1;P2;durP2;ratioP2
5819;SDS011;2936;47.348;9.640;2022-11-20T00:01:16;5.90;;;5.40;;
5819;SDS011;2936;47.348;9.640;2022-11-20T00:03:44;5.63;;;5.13;;
5819;SDS011;2936;47.348;9.640;2022-11-20T00:06:14;7.10;;;5.25;;
5819;SDS011;2936;47.348;9.640;2022-11-20T00:08:42;7.05;;;4.70;;
5819;SDS011;2936;47.348;9.640;2022-11-20T00:11:10;5.93;;;4.70;;
5819;SDS011;2936;47.348;9.640;2022-11-20T00:13:38;5.78;;;5.38;;
5819;SDS011;2936;47.348;9.640;2022-11-20T00:16:06;4.88;;;3.97;;
5819;SDS011;2936;47.348;9.640;2022-11-20T00:18:34;4.35;;;4.10;;
5819;SDS011;2936;47.348;9.640;2022-11-20T00:21:02;6.80;;;4.35;;
5819;SDS011;2936;47.348;9.640;2022-11-20T00:23:30;4.68;;;4.38;;
5819;SDS011;2936;47.348;9.640;2022-11-20T00:26:00;5.78;;;4.10;;
5819;SDS011;2936;47.348;9.640;2022-11-20T00:28:28;4.78;;;4.47;;
5819;SDS011;2936;47.348;9.640;2022-11-20T00:31:00;4.93;;;4.45;;
5819;SDS011;2936;47.348;9.640;2022-11-20T00:33:29;5.82;;;5.32;;
5819;SDS011;2936;47.348;9.640;2022-11-20T00:35:58;6.65;;;5.65;;
5819;SDS011;2936;47.348;9.640;2022-11-20T00:38:26;11.73;;;4.72;;
5819;SDS011;2936;47.348;9.640;2022-11-20T00:40:56;4.93;;;4.50;;
5819;SDS011;2936;47.348;9.640;2022-11-20T00:43:23;4.97;;;4.68;;
5819;SDS011;2936;47.348;9.640;2022-11-20T00:45:51;6.05;;;4.50;;
5819;SDS011;2936;47.348;9.640;2022-11-20T00:48:22;4.50;;;4.10;;
5819;SDS011;2936;47.348;9.640;2022-11-20T00:50:49;4.93;;;4.53;;
5819;SDS011;2936;47.348;9.640;2022-11-20T00:53:17;5.13;;;4.70;;
5819;SDS011;2936;47.348;9.640;2022-11-20T00:55:52;5.82;;;5.32;;
5819;SDS011;2936;47.348;9.640;2022-11-20T00:58:20;7.50;;;5.25;;
5819;SDS011;2936;47.348;9.640;2022-11-20T01:00:48;6.47;;;5.97;;
5819;SDS011;2936;47.348;9.640;2022-11-20T01:03:15;8.00;;;7.30;;
5819;SDS011;2936;47.348;9.640;2022-11-20T01:05:43;7.90;;;7.07;;
5819;SDS011;2936;47.348;9.640;2022-11-20T01:08:10;9.90;;;7.30;;
5819;SDS011;2936;47.348;9.640;2022-11-20T01:10:37;8.13;;;7.28;;
5819;SDS011;2936;47.348;9.640;2022-11-20T01:13:05;14.43;;;7.15;;
5819;SDS011;2936;47.348;9.640;2022-11-20T01:15:51;7.95;;;7.15;;
5819;SDS011;2936;47.348;9.640;2022-11-20T01:18:19;7.45;;;6.75;;
5819;SDS011;2936;47.348;9.640;2022-11-20T01:20:46;7.78;;;7.07;;
5819;SDS011;2936;47.348;9.640;2022-11-20T01:23:15;11.98;;;7.28;;
5819;SDS011;2936;47.348;9.640;2022-11-20T01:25:43;8.63;;;7.25;;
5819;SDS011;2936;47.348;9.640;2022-11-20T01:28:10;15.70;;;7.85;;
5819;SDS011;2936;47.348;9.640;2022-11-20T01:30:38;11.43;;;7.78;;
5819;SDS011;2936;47.348;9.640;2022-11-20T01:33:08;14.48;;;8.63;;
5819;SDS011;2936;47.348;9.640;2022-11-20T01:35:36;10.43;;;7.63;;
5819;SDS011;2936;47.348;9.640;2022-11-20T01:38:04;11.10;;;7.93;;
5819;SDS011;2936;47.348;9.640;2022-11-20T01:40:32;7.97;;;7.25;;
5819;SDS011;2936;47.348;9.640;2022-11-20T01:43:01;8.18;;;7.45;;
5819;SDS011;2936;47.348;9.640;2022-11-20T01:46:03;14.32;;;7.50;;
5819;SDS011;2936;47.348;9.640;2022-11-20T01:48:37;7.32;;;6.65;;
5819;SDS011;2936;47.348;9.640;2022-11-20T01:51:06;8.68;;;6.25;;
5819;SDS011;2936;47.348;9.640;2022-11-20T01:53:36;7.63;;;6.68;;
5819;SDS011;2936;47.348;9.640;2022-11-20T01:56:05;7.93;;;6.97;;
5819;SDS011;2936;47.348;9.640;2022-11-20T01:58:33;7.07;;;6.00;;
5819;SDS011;2936;47.348;9.640;2022-11-20T02:01:02;7.75;;;7.05;;
5819;SDS011;2936;47.348;9.640;2022-11-20T02:03:31;9.00;;;6.80;;
5819;SDS011;2936;47.348;9.640;2022-11-20T02:06:02;6.93;;;6.32;;
5819;SDS011;2936;47.348;9.640;2022-11-20T02:08:30;7.95;;;6.93;;
5819;SDS011;2936;47.348;9.640;2022-11-20T02:10:58;7.95;;;7.30;;
5819;SDS011;2936;47.348;9.640;2022-11-20T02:13:25;11.88;;;6.85;;
5819;SDS011;2936;47.348;9.640;2022-11-20T02:16:11;7.85;;;7.15;;
5819;SDS011;2936;47.348;9.640;2022-11-20T02:18:40;8.02;;;7.22;;
5819;SDS011;2936;47.348;9.640;2022-11-20T02:21:11;9.20;;;7.40;;
5819;SDS011;2936;47.348;9.640;2022-11-20T02:26:10;8.60;;;7.70;;
5819;SDS011;2936;47.348;9.640;2022-11-20T02:28:39;9.10;;;8.20;;
5819;SDS011;2936;47.348;9.640;2022-11-20T02:31:06;13.43;;;7.72;;
5819;SDS011;2936;47.348;9.640;2022-11-20T02:33:34;15.38;;;8.15;;
5819;SDS011;2936;47.348;9.640;2022-11-20T02:36:01;9.63;;;8.13;;
5819;SDS011;2936;47.348;9.640;2022-11-20T02:38:28;9.60;;;8.52;;
5819;SDS011;2936;47.348;9.640;2022-11-20T02:40:55;8.63;;;7.93;;
5819;SDS011;2936;47.348;9.640;2022-11-20T02:43:24;8.30;;;7.50;;
5819;SDS011;2936;47.348;9.640;2022-11-20T02:45:51;8.32;;;7.53;;
5819;SDS011;2936;47.348;9.640;2022-11-20T02:48:18;9.00;;;8.10;;
5819;SDS011;2936;47.348;9.640;2022-11-20T02:50:46;8.63;;;7.45;;
5819;SDS011;2936;47.348;9.640;2022-11-20T02:53:13;12.02;;;8.93;;
5819;SDS011;2936;47.348;9.640;2022-11-20T02:55:40;7.72;;;7.03;;
5819;SDS011;2936;47.348;9.640;2022-11-20T02:58:08;8.43;;;7.60;;
5819;SDS011;2936;47.348;9.640;2022-11-20T03:00:36;7.63;;;6.90;;
5819;SDS011;2936;47.348;9.640;2022-11-20T03:03:04;9.70;;;7.45;;
5819;SDS011;2936;47.348;9.640;2022-11-20T03:05:31;8.18;;;7.20;;
5819;SDS011;2936;47.348;9.640;2022-11-20T03:07:58;7.88;;;7.18;;
5819;SDS011;2936;47.348;9.640;2022-11-20T03:10:25;10.00;;;7.10;;
5819;SDS011;2936;47.348;9.640;2022-11-20T03:12:53;7.95;;;7.18;;
5819;SDS011;2936;47.348;9.640;2022-11-20T03:15:21;8.90;;;7.40;;
5819;SDS011;2936;47.348;9.640;2022-11-20T03:17:52;8.38;;;6.53;;
5819;SDS011;2936;47.348;9.640;2022-11-20T03:20:19;7.25;;;6.65;;
5819;SDS011;2936;47.348;9.640;2022-11-20T03:22:47;8.68;;;6.75;;
5819;SDS011;2936;47.348;9.640;2022-11-20T03:25:14;6.25;;;5.75;;
5819;SDS011;2936;47.348;9.640;2022-11-20T03:27:41;9.70;;;6.95;;
5819;SDS011;2936;47.348;9.640;2022-11-20T03:30:09;7.53;;;6.93;;
5819;SDS011;2936;47.348;9.640;2022-11-20T03:32:36;8.82;;;6.75;;
5819;SDS011;2936;47.348;9.640;2022-11-20T03:35:05;6.97;;;6.38;;
5819;SDS011;2936;47.348;9.640;2022-11-20T03:37:33;6.43;;;5.95;;
5819;SDS011;2936;47.348;9.640;2022-11-20T03:40:00;7.55;;;6.40;;
5819;SDS011;2936;47.348;9.640;2022-11-20T03:42:27;10.05;;;5.68;;
5819;SDS011;2936;47.348;9.640;2022-11-20T03:45:13;7.10;;;6.20;;
5819;SDS011;2936;47.348;9.640;2022-11-20T03:47:40;5.20;;;4.80;;
5819;SDS011;2936;47.348;9.640;2022-11-20T03:50:10;4.47;;;4.28;;
5819;SDS011;2936;47.348;9.640;2022-11-20T03:52:38;3.97;;;3.78;;
5819;SDS011;2936;47.348;9.640;2022-11-20T03:55:06;3.00;;;2.90;;
5819;SDS011;2936;47.348;9.640;2022-11-20T03:57:34;4.30;;;2.75;;
5819;SDS011;2936;47.348;9.640;2022-11-20T04:00:01;2.95;;;2.78;;
5819;SDS011;2936;47.348;9.640;2022-11-20T04:02:28;3.58;;;3.38;;
5819;SDS011;2936;47.348;9.640;2022-11-20T04:04:56;3.50;;;3.30;;
5819;SDS011;2936;47.348;9.640;2022-11-20T04:07:24;3.95;;;3.65;;
5819;SDS011;2936;47.348;9.640;2022-11-20T04:09:52;3.25;;;3.10;;
5819;SDS011;2936;47.348;9.640;2022-11-20T04:12:19;3.10;;;3.00;;
5819;SDS011;2936;47.348;9.640;2022-11-20T04:14:46;3.10;;;3.00;;
5819;SDS011;2936;47.348;9.640;2022-11-20T04:17:13;3.30;;;3.10;;
5819;SDS011;2936;47.348;9.640;2022-11-20T04:19:41;4.03;;;3.08;;
5819;SDS011;2936;47.348;9.640;2022-11-20T04:22:08;2.90;;;2.80;;
5819;SDS011;2936;47.348;9.640;2022-11-20T04:24:38;3.35;;;3.05;;
5819;SDS011;2936;47.348;9.640;2022-11-20T04:27:05;4.68;;;4.38;;
5819;SDS011;2936;47.348;9.640;2022-11-20T04:29:32;3.35;;;3.05;;
5819;SDS011;2936;47.348;9.640;2022-11-20T04:31:59;4.57;;;3.10;;
5819;SDS011;2936;47.348;9.640;2022-11-20T04:34:29;3.78;;;3.58;;
5819;SDS011;2936;47.348;9.640;2022-11-20T04:36:56;3.70;;;3.40;;
5819;SDS011;2936;47.348;9.640;2022-11-20T04:39:23;3.40;;;3.20;;
5819;SDS011;2936;47.348;9.640;2022-11-20T04:41:52;3.33;;;3.20;;
5819;SDS011;2936;47.348;9.640;2022-11-20T04:44:39;3.25;;;3.15;;
5819;SDS011;2936;47.348;9.640;2022-11-20T04:47:06;3.72;;;3.58;;
5819;SDS011;2936;47.348;9.640;2022-11-20T04:49:33;3.40;;;3.20;;
5819;SDS011;2936;47.348;9.640;2022-11-20T04:52:02;3.45;;;3.30;;
5819;SDS011;2936;47.348;9.640;2022-11-20T04:54:29;3.85;;;3.55;;
5819;SDS011;2936;47.348;9.640;2022-11-20T04:56:58;3.13;;;3.03;;
5819;SDS011;2936;47.348;9.640;2022-11-20T04:59:25;3.05;;;2.90;;
5819;SDS011;2936;47.348;9.640;2022-11-20T05:01:52;3.10;;;3.00;;
5819;SDS011;2936;47.348;9.640;2022-11-20T05:04:20;3.22;;;3.08;;
5819;SDS011;2936;47.348;9.640;2022-11-20T05:06:47;3.50;;;3.30;;
5819;SDS011;2936;47.348;9.640;2022-11-20T05:09:14;4.68;;;3.10;;
5819;SDS011;2936;47.348;9.640;2022-11-20T05:11:42;3.13;;;2.95;;
5819;SDS011;2936;47.348;9.640;2022-11-20T05:14:10;2.90;;;2.70;;
5819;SDS011;2936;47.348;9.640;2022-11-20T05:16:37;3.20;;;3.10;;
5819;SDS011;2936;47.348;9.640;2022-11-20T05:19:05;10.93;;;7.70;;
5819;SDS011;2936;47.348;9.640;2022-11-20T05:21:32;7.82;;;4.82;;
5819;SDS011;2936;47.348;9.640;2022-11-20T05:23:59;4.45;;;4.10;;
5819;SDS011;2936;47.348;9.640;2022-11-20T05:26:26;2.83;;;2.72;;
5819;SDS011;2936;47.348;9.640;2022-11-20T05:28:54;28.30;;;14.27;;
5819;SDS011;2936;47.348;9.640;2022-11-20T05:31:23;13.98;;;9.00;;
5819;SDS011;2936;47.348;9.640;2022-11-20T05:33:50;11.65;;;6.30;;
5819;SDS011;2936;47.348;9.640;2022-11-20T05:36:18;8.45;;;6.00;;
5819;SDS011;2936;47.348;9.640;2022-11-20T05:38:45;25.90;;;12.75;;
5819;SDS011;2936;47.348;9.640;2022-11-20T05:41:13;22.13;;;12.55;;
5819;SDS011;2936;47.348;9.640;2022-11-20T05:43:42;20.02;;;12.02;;
5819;SDS011;2936;47.348;9.640;2022-11-20T05:46:10;7.07;;;5.60;;
5819;SDS011;2936;47.348;9.640;2022-11-20T05:48:39;3.90;;;3.60;;
5819;SDS011;2936;47.348;9.640;2022-11-20T05:51:07;3.25;;;3.05;;
5819;SDS011;2936;47.348;9.640;2022-11-20T05:53:36;3.42;;;3.13;;
5819;SDS011;2936;47.348;9.640;2022-11-20T05:56:04;3.35;;;3.20;;
5819;SDS011;2936;47.348;9.640;2022-11-20T05:58:32;4.40;;;4.07;;
5819;SDS011;2936;47.348;9.640;2022-11-20T06:01:03;3.30;;;3.15;;
5819;SDS011;2936;47.348;9.640;2022-11-20T06:03:30;3.15;;;3.05;;
5819;SDS011;2936;47.348;9.640;2022-11-20T06:05:59;4.40;;;3.22;;
5819;SDS011;2936;47.348;9.640;2022-11-20T06:08:27;8.52;;;3.60;;
5819;SDS011;2936;47.348;9.640;2022-11-20T06:10:54;3.58;;;3.28;;
5819;SDS011;2936;47.348;9.640;2022-11-20T06:13:22;3.20;;;3.00;;
5819;SDS011;2936;47.348;9.640;2022-11-20T06:15:49;6.45;;;5.95;;
5819;SDS011;2936;47.348;9.640;2022-11-20T06:18:16;6.55;;;5.95;;
5819;SDS011;2936;47.348;9.640;2022-11-20T06:20:43;5.40;;;5.10;;
5819;SDS011;2936;47.348;9.640;2022-11-20T06:23:12;5.88;;;5.55;;
5819;SDS011;2936;47.348;9.640;2022-11-20T06:25:39;4.50;;;4.30;;
5819;SDS011;2936;47.348;9.640;2022-11-20T06:28:07;3.53;;;3.42;;
5819;SDS011;2936;47.348;9.640;2022-11-20T06:30:34;3.83;;;3.30;;
5819;SDS011;2936;47.348;9.640;2022-11-20T06:33:02;3.53;;;3.22;;
5819;SDS011;2936;47.348;9.640;2022-11-20T06:35:43;3.80;;;3.50;;
5819;SDS011;2936;47.348;9.640;2022-11-20T06:38:12;5.05;;;4.75;;
5819;SDS011;2936;47.348;9.640;2022-11-20T06:40:40;4.40;;;4.20;;
5819;SDS011;2936;47.348;9.640;2022-11-20T06:43:07;4.10;;;3.75;;
5819;SDS011;2936;47.348;9.640;2022-11-20T06:45:34;8.05;;;4.25;;
5819;SDS011;2936;47.348;9.640;2022-11-20T06:48:02;4.60;;;4.38;;
5819;SDS011;2936;47.348;9.640;2022-11-20T06:50:29;5.03;;;4.20;;
5819;SDS011;2936;47.348;9.640;2022-11-20T06:52:58;4.20;;;4.00;;
5819;SDS011;2936;47.348;9.640;2022-11-20T06:55:28;5.00;;;4.55;;
5819;SDS011;2936;47.348;9.640;2022-11-20T06:57:55;6.50;;;5.13;;
5819;SDS011;2936;47.348;9.640;2022-11-20T07:00:22;6.60;;;5.38;;
5819;SDS011;2936;47.348;9.640;2022-11-20T07:02:50;5.70;;;5.20;;
5819;SDS011;2936;47.348;9.640;2022-11-20T07:05:17;7.00;;;6.30;;
5819;SDS011;2936;47.348;9.640;2022-11-20T07:07:44;6.82;;;6.28;;
5819;SDS011;2936;47.348;9.640;2022-11-20T07:10:12;7.82;;;7.15;;
5819;SDS011;2936;47.348;9.640;2022-11-20T07:12:40;18.60;;;12.80;;
5819;SDS011;2936;47.348;9.640;2022-11-20T07:15:08;12.38;;;11.10;;
5819;SDS011;2936;47.348;9.640;2022-11-20T07:17:35;10.45;;;9.15;;
5819;SDS011;2936;47.348;9.640;2022-11-20T07:20:03;10.50;;;9.40;;
5819;SDS011;2936;47.348;9.640;2022-11-20T07:22:30;16.98;;;11.65;;
5819;SDS011;2936;47.348;9.640;2022-11-20T07:24:57;8.60;;;7.65;;
5819;SDS011;2936;47.348;9.640;2022-11-20T07:27:24;9.88;;;7.47;;
5819;SDS011;2936;47.348;9.640;2022-11-20T07:29:53;8.07;;;7.32;;
5819;SDS011;2936;47.348;9.640;2022-11-20T07:32:20;16.10;;;7.60;;
5819;SDS011;2936;47.348;9.640;2022-11-20T07:34:48;10.43;;;8.30;;
5819;SDS011;2936;47.348;9.640;2022-11-20T07:37:15;9.98;;;8.95;;
5819;SDS011;2936;47.348;9.640;2022-11-20T07:39:42;9.57;;;8.52;;
5819;SDS011;2936;47.348;9.640;2022-11-20T07:42:10;12.80;;;11.60;;
5819;SDS011;2936;47.348;9.640;2022-11-20T07:44:38;11.60;;;10.27;;
5819;SDS011;2936;47.348;9.640;2022-11-20T07:47:06;15.98;;;10.18;;
5819;SDS011;2936;47.348;9.640;2022-11-20T07:49:33;8.15;;;7.30;;
5819;SDS011;2936;47.348;9.640;2022-11-20T07:52:01;14.27;;;8.32;;
5819;SDS011;2936;47.348;9.640;2022-11-20T07:54:28;10.88;;;8.35;;
5819;SDS011;2936;47.348;9.640;2022-11-20T07:56:55;8.70;;;7.78;;
5819;SDS011;2936;47.348;9.640;2022-11-20T07:59:23;8.52;;;7.63;;
5819;SDS011;2936;47.348;9.640;2022-11-20T08:01:50;8.48;;;7.68;;
5819;SDS011;2936;47.348;9.640;2022-11-20T08:04:19;9.23;;;8.43;;
5819;SDS011;2936;47.348;9.640;2022-11-20T08:06:46;12.38;;;10.25;;
5819;SDS011;2936;47.348;9.640;2022-11-20T08:09:13;10.88;;;9.70;;
5819;SDS011;2936;47.348;9.640;2022-11-20T08:11:41;12.73;;;9.88;;
5819;SDS011;2936;47.348;9.640;2022-11-20T08:14:25;13.38;;;10.60;;
5819;SDS011;2936;47.348;9.640;2022-11-20T08:16:53;12.55;;;10.25;;
5819;SDS011;2936;47.348;9.640;2022-11-20T08:19:22;17.13;;;9.90;;
5819;SDS011;2936;47.348;9.640;2022-11-20T08:21:49;8.70;;;7.85;;
5819;SDS011;2936;47.348;9.640;2022-11-20T08:24:16;12.30;;;10.15;;
5819;SDS011;2936;47.348;9.640;2022-11-20T08:26:43;9.73;;;8.73;;
5819;SDS011;2936;47.348;9.640;2022-11-20T08:29:11;7.70;;;7.05;;
5819;SDS011;2936;47.348;9.640;2022-11-20T08:31:38;7.75;;;7.05;;
5819;SDS011;2936;47.348;9.640;2022-11-20T08:34:06;8.40;;;7.60;;
5819;SDS011;2936;47.348;9.640;2022-11-20T08:36:35;8.00;;;7.20;;
5819;SDS011;2936;47.348;9.640;2022-11-20T08:39:02;8.60;;;6.65;;
5819;SDS011;2936;47.348;9.640;2022-11-20T08:41:30;7.85;;;7.20;;
5819;SDS011;2936;47.348;9.640;2022-11-20T08:44:05;7.38;;;6.93;;
5819;SDS011;2936;47.348;9.640;2022-11-20T08:46:33;7.00;;;6.38;;
5819;SDS011;2936;47.348;9.640;2022-11-20T08:49:02;7.25;;;6.65;;
5819;SDS011;2936;47.348;9.640;2022-11-20T08:51:29;10.13;;;8.40;;
5819;SDS011;2936;47.348;9.640;2022-11-20T08:53:58;8.77;;;6.78;;
5819;SDS011;2936;47.348;9.640;2022-11-20T08:56:25;20.85;;;12.40;;
5819;SDS011;2936;47.348;9.640;2022-11-20T08:58:52;10.13;;;7.38;;
5819;SDS011;2936;47.348;9.640;2022-11-20T09:01:20;10.90;;;6.28;;
5819;SDS011;2936;47.348;9.640;2022-11-20T09:03:49;7.95;;;5.82;;
5819;SDS011;2936;47.348;9.640;2022-11-20T09:06:16;6.68;;;6.10;;
5819;SDS011;2936;47.348;9.640;2022-11-20T09:08:44;5.20;;;4.90;;
5819;SDS011;2936;47.348;9.640;2022-11-20T09:11:12;5.78;;;5.13;;
5819;SDS011;2936;47.348;9.640;2022-11-20T09:13:40;5.32;;;4.93;;
5819;SDS011;2936;47.348;9.640;2022-11-20T09:16:08;5.47;;;5.18;;
5819;SDS011;2936;47.348;9.640;2022-11-20T09:18:35;6.85;;;5.90;;
5819;SDS011;2936;47.348;9.640;2022-11-20T09:21:04;5.82;;;5.32;;
5819;SDS011;2936;47.348;9.640;2022-11-20T09:23:33;5.63;;;5.32;;
5819;SDS011;2936;47.348;9.640;2022-11-20T09:26:03;6.88;;;6.20;;
5819;SDS011;2936;47.348;9.640;2022-11-20T09:28:32;6.28;;;5.70;;
5819;SDS011;2936;47.348;9.640;2022-11-20T09:31:00;6.03;;;5.50;;
5819;SDS011;2936;47.348;9.640;2022-11-20T09:33:27;5.72;;;5.32;;
5819;SDS011;2936;47.348;9.640;2022-11-20T09:35:54;5.85;;;5.35;;
5819;SDS011;2936;47.348;9.640;2022-11-20T09:38:21;6.32;;;5.72;;
5819;SDS011;2936;47.348;9.640;2022-11-20T09:40:50;8.98;;;5.60;;
5819;SDS011;2936;47.348;9.640;2022-11-20T09:43:19;7.88;;;7.05;;
5819;SDS011;2936;47.348;9.640;2022-11-20T09:45:53;9.75;;;6.68;;
5819;SDS011;2936;47.348;9.640;2022-11-20T09:48:26;7.07;;;6.28;;
5819;SDS011;2936;47.348;9.640;2022-11-20T09:50:57;6.50;;;5.90;;
5819;SDS011;2936;47.348;9.640;2022-11-20T09:56:22;8.00;;;5.85;;
5819;SDS011;2936;47.348;9.640;2022-11-20T09:58:50;7.15;;;6.13;;
5819;SDS011;2936;47.348;9.640;2022-11-20T10:01:20;5.32;;;4.90;;
5819;SDS011;2936;47.348;9.640;2022-11-20T10:03:50;6.20;;;5.60;;
5819;SDS011;2936;47.348;9.640;2022-11-20T10:06:21;6.03;;;5.53;;
5819;SDS011;2936;47.348;9.640;2022-11-20T10:08:51;5.38;;;4.88;;
5819;SDS011;2936;47.348;9.640;2022-11-20T10:11:24;6.68;;;6.07;;
5819;SDS011;2936;47.348;9.640;2022-11-20T10:13:59;6.60;;;5.22;;
5819;SDS011;2936;47.348;9.640;2022-11-20T10:16:32;5.47;;;5.13;;
5819;SDS011;2936;47.348;9.640;2022-11-20T10:19:07;6.15;;;5.63;;
5819;SDS011;2936;47.348;9.640;2022-11-20T10:21:41;5.90;;;5.50;;
5819;SDS011;2936;47.348;9.640;2022-11-20T10:26:58;5.30;;;4.90;;
5819;SDS011;2936;47.348;9.640;2022-11-20T10:29:28;5.68;;;5.18;;
5819;SDS011;2936;47.348;9.640;2022-11-20T10:32:00;6.00;;;5.22;;
5819;SDS011;2936;47.348;9.640;2022-11-20T10:34:28;4.10;;;3.78;;
5819;SDS011;2936;47.348;9.640;2022-11-20T10:36:59;5.45;;;3.60;;
5819;SDS011;2936;47.348;9.640;2022-11-20T10:39:31;3.90;;;3.65;;
5819;SDS011;2936;47.348;9.640;2022-11-20T10:41:59;4.03;;;3.50;;
5819;SDS011;2936;47.348;9.640;2022-11-20T10:44:28;4.53;;;4.18;;
5819;SDS011;2936;47.348;9.640;2022-11-20T10:47:15;4.10;;;3.88;;
5819;SDS011;2936;47.348;9.640;2022-11-20T10:49:43;4.22;;;3.85;;
5819;SDS011;2936;47.348;9.640;2022-11-20T10:52:12;4.55;;;4.22;;
5819;SDS011;2936;47.348;9.640;2022-11-20T10:54:45;3.80;;;3.60;;
5819;SDS011;2936;47.348;9.640;2022-11-20T10:57:17;5.07;;;4.68;;
5819;SDS011;2936;47.348;9.640;2022-11-20T10:59:59;4.60;;;4.30;;
5819;SDS011;2936;47.348;9.640;2022-11-20T11:02:33;3.95;;;3.75;;
5819;SDS011;2936;47.348;9.640;2022-11-20T11:05:05;3.80;;;3.60;;
5819;SDS011;2936;47.348;9.640;2022-11-20T11:07:36;4.00;;;3.80;;
5819;SDS011;2936;47.348;9.640;2022-11-20T11:10:11;4.28;;;3.97;;
5819;SDS011;2936;47.348;9.640;2022-11-20T11:12:42;5.80;;;3.80;;
5819;SDS011;2936;47.348;9.640;2022-11-20T11:15:11;3.78;;;3.58;;
5819;SDS011;2936;47.348;9.640;2022-11-20T11:17:46;3.55;;;3.25;;
5819;SDS011;2936;47.348;9.640;2022-11-20T11:20:15;3.38;;;3.28;;
5819;SDS011;2936;47.348;9.640;2022-11-20T11:22:43;4.00;;;3.70;;
5819;SDS011;2936;47.348;9.640;2022-11-20T11:25:18;3.20;;;3.10;;
5819;SDS011;2936;47.348;9.640;2022-11-20T11:27:47;3.58;;;2.83;;
5819;SDS011;2936;47.348;9.640;2022-11-20T11:30:15;3.35;;;3.13;;
5819;SDS011;2936;47.348;9.640;2022-11-20T11:32:43;5.95;;;3.90;;
5819;SDS011;2936;47.348;9.640;2022-11-20T11:38:01;2.85;;;2.75;;
5819;SDS011;2936;47.348;9.640;2022-11-20T11:40:29;3.20;;;2.85;;
5819;SDS011;2936;47.348;9.640;2022-11-20T11:42:58;2.53;;;2.42;;
5819;SDS011;2936;47.348;9.640;2022-11-20T11:45:26;2.67;;;2.58;;
5819;SDS011;2936;47.348;9.640;2022-11-20T11:47:53;3.03;;;2.83;;
5819;SDS011;2936;47.348;9.640;2022-11-20T11:50:22;6.40;;;4.45;;
5819;SDS011;2936;47.348;9.640;2022-11-20T11:53:03;2.70;;;2.50;;
5819;SDS011;2936;47.348;9.640;2022-11-20T11:55:35;2.50;;;2.40;;
5819;SDS011;2936;47.348;9.640;2022-11-20T11:58:09;2.80;;;2.70;;
5819;SDS011;2936;47.348;9.640;2022-11-20T12:00:39;2.78;;;2.63;;
5819;SDS011;2936;47.348;9.640;2022-11-20T12:03:09;2.60;;;2.50;;
5819;SDS011;2936;47.348;9.640;2022-11-20T12:05:42;2.75;;;2.65;;
5819;SDS011;2936;47.348;9.640;2022-11-20T12:08:14;2.90;;;2.80;;
5819;SDS011;2936;47.348;9.640;2022-11-20T12:10:45;3.08;;;2.88;;
5819;SDS011;2936;47.348;9.640;2022-11-20T12:13:28;2.80;;;2.70;;
5819;SDS011;2936;47.348;9.640;2022-11-20T12:15:58;2.40;;;2.30;;
5819;SDS011;2936;47.348;9.640;2022-11-20T12:18:25;2.60;;;2.50;;
5819;SDS011;2936;47.348;9.640;2022-11-20T12:20:56;2.92;;;2.83;;
5819;SDS011;2936;47.348;9.640;2022-11-20T12:23:30;7.13;;;6.40;;
5819;SDS011;2936;47.348;9.640;2022-11-20T12:26:04;7.20;;;6.55;;
5819;SDS011;2936;47.348;9.640;2022-11-20T12:28:37;4.32;;;4.03;;
5819;SDS011;2936;47.348;9.640;2022-11-20T12:31:12;4.25;;;3.85;;
5819;SDS011;2936;47.348;9.640;2022-11-20T12:33:45;4.70;;;4.40;;
5819;SDS011;2936;47.348;9.640;2022-11-20T12:36:16;3.92;;;3.70;;
5819;SDS011;2936;47.348;9.640;2022-11-20T12:38:59;3.72;;;3.40;;
5819;SDS011;2936;47.348;9.640;2022-11-20T12:41:35;7.15;;;3.53;;
5819;SDS011;2936;47.348;9.640;2022-11-20T12:44:29;3.15;;;2.85;;
5819;SDS011;2936;47.348;9.640;2022-11-20T12:47:21;3.05;;;2.85;;
5819;SDS011;2936;47.348;9.640;2022-11-20T12:49:52;2.78;;;2.67;;
5819;SDS011;2936;47.348;9.640;2022-11-20T12:52:25;3.00;;;2.88;;
5819;SDS011;2936;47.348;9.640;2022-11-20T12:55:09;2.85;;;2.75;;
5819;SDS011;2936;47.348;9.640;2022-11-20T12:57:42;3.35;;;3.15;;
5819;SDS011;2936;47.348;9.640;2022-11-20T13:00:14;3.25;;;2.95;;
5819;SDS011;2936;47.348;9.640;2022-11-20T13:02:46;3.50;;;3.30;;
5819;SDS011;2936;47.348;9.640;2022-11-20T13:05:24;4.65;;;3.78;;
5819;SDS011;2936;47.348;9.640;2022-11-20T13:07:54;4.00;;;3.70;;
5819;SDS011;2936;47.348;9.640;2022-11-20T13:10:26;3.97;;;3.72;;
5819;SDS011;2936;47.348;9.640;2022-11-20T13:12:59;3.60;;;3.30;;
5819;SDS011;2936;47.348;9.640;2022-11-20T13:15:35;4.30;;;3.65;;
5819;SDS011;2936;47.348;9.640;2022-11-20T13:18:07;3.17;;;3.00;;
5819;SDS011;2936;47.348;9.640;2022-11-20T13:20:35;3.45;;;3.20;;
5819;SDS011;2936;47.348;9.640;2022-11-20T13:23:03;3.60;;;3.17;;
5819;SDS011;2936;47.348;9.640;2022-11-20T13:25:32;3.70;;;3.50;;
5819;SDS011;2936;47.348;9.640;2022-11-20T13:28:00;4.45;;;3.60;;
5819;SDS011;2936;47.348;9.640;2022-11-20T13:30:28;3.15;;;2.95;;
5819;SDS011;2936;47.348;9.640;2022-11-20T13:32:56;4.32;;;4.03;;
5819;SDS011;2936;47.348;9.640;2022-11-20T13:35:29;3.38;;;3.28;;
5819;SDS011;2936;47.348;9.640;2022-11-20T13:38:00;3.70;;;3.40;;
5819;SDS011;2936;47.348;9.640;2022-11-20T13:40:28;3.97;;;3.78;;
5819;SDS011;2936;47.348;9.640;2022-11-20T13:43:01;3.42;;;3.22;;
5819;SDS011;2936;47.348;9.640;2022-11-20T13:45:29;3.42;;;3.28;;
5819;SDS011;2936;47.348;9.640;2022-11-20T13:47:58;3.35;;;3.15;;
5819;SDS011;2936;47.348;9.640;2022-11-20T13:50:37;3.03;;;2.92;;
5819;SDS011;2936;47.348;9.640;2022-11-20T13:53:08;3.50;;;3.30;;
5819;SDS011;2936;47.348;9.640;2022-11-20T13:55:40;2.90;;;2.80;;
5819;SDS011;2936;47.348;9.640;2022-11-20T13:58:21;3.65;;;3.30;;
5819;SDS011;2936;47.348;9.640;2022-11-20T14:00:55;6.72;;;3.90;;
5819;SDS011;2936;47.348;9.640;2022-11-20T14:03:24;4.00;;;3.80;;
5819;SDS011;2936;47.348;9.640;2022-11-20T14:05:53;3.80;;;3.60;;
5819;SDS011;2936;47.348;9.640;2022-11-20T14:08:25;3.55;;;3.35;;
5819;SDS011;2936;47.348;9.640;2022-11-20T14:11:03;3.60;;;3.40;;
5819;SDS011;2936;47.348;9.640;2022-11-20T14:13:32;3.60;;;3.40;;
5819;SDS011;2936;47.348;9.640;2022-11-20T14:15:59;3.30;;;3.00;;
5819;SDS011;2936;47.348;9.640;2022-11-20T14:18:26;3.40;;;3.20;;
5819;SDS011;2936;47.348;9.640;2022-11-20T14:20:54;3.95;;;3.53;;
5819;SDS011;2936;47.348;9.640;2022-11-20T14:23:25;4.20;;;3.80;;
5819;SDS011;2936;47.348;9.640;2022-11-20T14:25:53;3.90;;;3.70;;
5819;SDS011;2936;47.348;9.640;2022-11-20T14:28:22;3.97;;;3.58;;
5819;SDS011;2936;47.348;9.640;2022-11-20T14:30:53;4.05;;;3.70;;
5819;SDS011;2936;47.348;9.640;2022-11-20T14:33:21;4.20;;;3.67;;
5819;SDS011;2936;47.348;9.640;2022-11-20T14:35:51;3.60;;;3.30;;
5819;SDS011;2936;47.348;9.640;2022-11-20T14:38:19;4.50;;;3.28;;
5819;SDS011;2936;47.348;9.640;2022-11-20T14:40:48;3.55;;;3.30;;
5819;SDS011;2936;47.348;9.640;2022-11-20T14:43:17;4.63;;;3.45;;
5819;SDS011;2936;47.348;9.640;2022-11-20T14:45:44;3.30;;;3.10;;
5819;SDS011;2936;47.348;9.640;2022-11-20T14:48:14;3.58;;;3.30;;
5819;SDS011;2936;47.348;9.640;2022-11-20T14:50:42;3.63;;;3.33;;
5819;SDS011;2936;47.348;9.640;2022-11-20T14:53:10;6.07;;;3.75;;
5819;SDS011;2936;47.348;9.640;2022-11-20T14:55:38;4.68;;;4.28;;
5819;SDS011;2936;47.348;9.640;2022-11-20T14:58:06;5.30;;;4.53;;
5819;SDS011;2936;47.348;9.640;2022-11-20T15:00:33;8.60;;;5.85;;
5819;SDS011;2936;47.348;9.640;2022-11-20T15:03:02;7.18;;;5.65;;
5819;SDS011;2936;47.348;9.640;2022-11-20T15:08:15;3.65;;;3.10;;
5819;SDS011;2936;47.348;9.640;2022-11-20T15:10:45;2.92;;;2.83;;
5819;SDS011;2936;47.348;9.640;2022-11-20T15:13:13;3.53;;;3.33;;
5819;SDS011;2936;47.348;9.640;2022-11-20T15:15:42;11.60;;;6.13;;
5819;SDS011;2936;47.348;9.640;2022-11-20T15:18:10;34.08;;;14.38;;
5819;SDS011;2936;47.348;9.640;2022-11-20T15:20:40;23.83;;;9.30;;
5819;SDS011;2936;47.348;9.640;2022-11-20T15:23:09;16.38;;;7.65;;
5819;SDS011;2936;47.348;9.640;2022-11-20T15:25:40;7.57;;;5.70;;
5819;SDS011;2936;47.348;9.640;2022-11-20T15:28:12;5.65;;;5.15;;
5819;SDS011;2936;47.348;9.640;2022-11-20T15:30:40;12.43;;;5.60;;
5819;SDS011;2936;47.348;9.640;2022-11-20T15:33:08;4.90;;;4.50;;
5819;SDS011;2936;47.348;9.640;2022-11-20T15:35:35;5.80;;;5.15;;
5819;SDS011;2936;47.348;9.640;2022-11-20T15:38:03;14.57;;;9.80;;
5819;SDS011;2936;47.348;9.640;2022-11-20T15:40:30;16.63;;;8.80;;